Llantwit Major, United Kingdom
Current Conditions -  °F | °C
As of 8:50 AM on Monday 22 Dec 2014 (Local Time) from EGDX Reporting Station
Broken Clouds Broken Clouds  
Wind Chill: 52°   Ceiling: 1300
Heat Index: 52°   Visibility: 6mi
Dew Point: 50°   Wind: 25mph
Humidity: 94%   Direction: 250°WSW
Pressure: 30.09"   Gusts: 37mph
Location:  51.41°N, 3.49°W
Report Text: EGDX 220850Z 25022G32KT 9999 BKN013 11/10 Q1019 GRN
Loading
Personal Weather Stations






























Interactive Weather Map New forecast layout! Learn more

10-Day Weather Forecast

Advertisements
Track Severe Weather on mobile